Time;durP1;ratioP1;P1;durP2;ratioP2;P2;SDS_P1;SDS_P2;PMS_P1;PMS_P2;Temp;Humidity;BMP_temperature;BMP_pressure;BME280_temperature;BME280_humidity;BME280_pressure;Samples;Min_cycle;Max_cycle;Signal;HPM_P1;HPM_P2
2022/03/23 00:00:06;;;;;;;65.80;30.85;;;;;;;;;;5035246;28;20488;-71
2022/03/23 00:02:32;;;;;;;60.78;28.55;;;;;;;;;;5053407;28;20045;-70
2022/03/23 00:04:58;;;;;;;54.92;27.98;;;;;;;;;;5053619;28;20041;-71
2022/03/23 00:07:24;;;;;;;54.15;26.92;;;;;;;;;;5052947;28;20045;-71
2022/03/23 00:09:50;;;;;;;51.05;26.88;;;;;;;;;;5053060;28;20116;-71
2022/03/23 00:12:16;;;;;;;57.63;26.98;;;;;;;;;;5035653;28;20078;-71
2022/03/23 00:14:42;;;;;;;50.50;26.83;;;;;;;;;;5053220;28;20480;-71
2022/03/23 00:17:08;;;;;;;52.25;26.05;;;;;;;;;;5035377;28;20044;-71
2022/03/23 00:19:34;;;;;;;55.20;26.95;;;;;;;;;;5052986;28;20137;-71
2022/03/23 00:22:01;;;;;;;49.92;27.35;;;;;;;;;;5053617;28;20048;-70
2022/03/23 00:24:27;;;;;;;59.47;28.42;;;;;;;;;;5052873;28;20041;-71
2022/03/23 00:26:53;;;;;;;45.70;24.75;;;;;;;;;;5053241;28;20045;-70
2022/03/23 00:29:19;;;;;;;52.33;26.30;;;;;;;;;;5052853;28;20049;-71
2022/03/23 00:31:45;;;;;;;55.20;27.77;;;;;;;;;;5053583;28;20033;-71
2022/03/23 00:34:11;;;;;;;54.65;26.40;;;;;;;;;;5035365;28;20052;-70
2022/03/23 00:36:37;;;;;;;54.47;28.25;;;;;;;;;;5052846;28;20076;-70
2022/03/23 00:39:03;;;;;;;53.50;27.95;;;;;;;;;;5052825;28;20052;-70
2022/03/23 00:41:29;;;;;;;59.00;27.77;;;;;;;;;;5052716;28;20052;-70
2022/03/23 00:43:56;;;;;;;62.08;28.20;;;;;;;;;;5052531;28;20139;-70
2022/03/23 00:46:23;;;;;;;65.30;30.63;;;;;;;;;;5053327;28;20049;-71
2022/03/23 00:48:49;;;;;;;65.60;29.85;;;;;;;;;;5053191;28;20124;-70
2022/03/23 00:51:15;;;;;;;60.42;29.08;;;;;;;;;;5052883;28;20053;-70
2022/03/23 00:53:41;;;;;;;62.00;28.95;;;;;;;;;;5052518;28;20048;-70
2022/03/23 00:56:07;;;;;;;52.95;28.20;;;;;;;;;;5052913;28;20037;-71
2022/03/23 00:58:33;;;;;;;64.88;29.20;;;;;;;;;;5053187;28;20427;-70
2022/03/23 01:00:59;;;;;;;69.25;30.67;;;;;;;;;;5052827;28;20065;-70
2022/03/23 01:03:25;;;;;;;61.15;29.30;;;;;;;;;;5052758;28;20128;-71
2022/03/23 01:05:51;;;;;;;60.45;28.85;;;;;;;;;;5052469;28;20124;-70
2022/03/23 01:08:17;;;;;;;69.93;31.17;;;;;;;;;;5054298;28;20124;-70
2022/03/23 01:10:44;;;;;;;66.80;29.48;;;;;;;;;;5056396;28;20123;-70
2022/03/23 01:13:10;;;;;;;65.65;30.60;;;;;;;;;;5055859;28;20045;-71
2022/03/23 01:15:36;;;;;;;54.05;28.00;;;;;;;;;;5056052;28;20088;-70
2022/03/23 01:18:03;;;;;;;57.95;28.67;;;;;;;;;;5055823;28;20530;-70
2022/03/23 01:20:30;;;;;;;59.30;28.80;;;;;;;;;;5055658;28;20112;-70
2022/03/23 01:22:56;;;;;;;63.90;30.13;;;;;;;;;;5055805;28;20083;-70
2022/03/23 01:25:23;;;;;;;59.53;29.02;;;;;;;;;;5055998;28;20049;-70
2022/03/23 01:27:49;;;;;;;68.25;30.02;;;;;;;;;;5038164;28;20049;-70
2022/03/23 01:30:16;;;;;;;56.35;28.48;;;;;;;;;;5055840;28;20404;-70
2022/03/23 01:32:42;;;;;;;56.30;28.58;;;;;;;;;;5035663;28;20048;-70
2022/03/23 01:35:09;;;;;;;62.88;29.48;;;;;;;;;;5035865;28;20393;-70
2022/03/23 01:37:35;;;;;;;58.22;29.35;;;;;;;;;;5035487;28;20136;-70
2022/03/23 01:40:01;;;;;;;65.78;30.10;;;;;;;;;;5018058;28;20084;-71
2022/03/23 01:42:28;;;;;;;54.13;28.75;;;;;;;;;;5035448;28;20168;-71
2022/03/23 01:44:55;;;;;;;62.35;29.23;;;;;;;;;;5035886;28;20055;-70
2022/03/23 01:47:21;;;;;;;54.35;28.13;;;;;;;;;;5035545;28;20120;-70
2022/03/23 01:49:48;;;;;;;62.08;29.52;;;;;;;;;;5035503;28;20531;-70
2022/03/23 01:52:15;;;;;;;60.35;30.02;;;;;;;;;;5037632;28;20037;-71
2022/03/23 01:54:42;;;;;;;62.08;29.75;;;;;;;;;;5046582;28;20041;-70
2022/03/23 01:57:09;;;;;;;58.65;28.67;;;;;;;;;;5055334;28;20121;-70
2022/03/23 01:59:36;;;;;;;60.15;30.27;;;;;;;;;;5020623;28;20045;-70
2022/03/23 02:02:02;;;;;;;63.70;29.77;;;;;;;;;;5055412;28;20067;-70
2022/03/23 02:04:28;;;;;;;64.85;31.67;;;;;;;;;;5055073;28;20435;-70
2022/03/23 02:06:54;;;;;;;66.13;31.23;;;;;;;;;;5054965;28;20048;-70
2022/03/23 02:09:21;;;;;;;60.55;29.45;;;;;;;;;;5054672;28;20407;-70
2022/03/23 02:11:49;;;;;;;61.88;31.27;;;;;;;;;;5054999;28;20052;-70
2022/03/23 02:14:15;;;;;;;70.87;31.53;;;;;;;;;;5055175;28;20057;-70
2022/03/23 02:16:42;;;;;;;62.92;30.52;;;;;;;;;;5020416;28;20044;-70
2022/03/23 02:19:08;;;;;;;64.72;30.58;;;;;;;;;;5055037;28;20072;-70
2022/03/23 02:21:34;;;;;;;64.53;31.77;;;;;;;;;;5037690;28;20048;-70
2022/03/23 02:24:03;;;;;;;66.97;31.85;;;;;;;;;;5055104;28;20041;-70
2022/03/23 02:26:29;;;;;;;75.35;31.70;;;;;;;;;;5054833;28;20102;-70
2022/03/23 02:28:55;;;;;;;70.88;30.02;;;;;;;;;;5054930;28;20124;-70
2022/03/23 02:31:21;;;;;;;70.90;32.53;;;;;;;;;;5054704;28;20044;-70
2022/03/23 02:33:47;;;;;;;74.18;31.17;;;;;;;;;;5054827;28;20050;-70
2022/03/23 02:36:13;;;;;;;66.70;31.25;;;;;;;;;;5054491;28;20505;-70
2022/03/23 02:38:39;;;;;;;70.10;32.28;;;;;;;;;;5054657;28;20048;-70
2022/03/23 02:41:05;;;;;;;62.08;30.58;;;;;;;;;;5054701;28;20064;-70
2022/03/23 02:43:31;;;;;;;61.80;30.25;;;;;;;;;;5033688;28;20500;-70
2022/03/23 02:45:57;;;;;;;58.72;29.00;;;;;;;;;;5036069;28;20045;-70
2022/03/23 02:48:23;;;;;;;68.68;30.95;;;;;;;;;;5034507;28;20045;-70
2022/03/23 02:50:49;;;;;;;57.30;29.38;;;;;;;;;;5034588;28;20448;-70
2022/03/23 03:02:02;;;;;;;71.80;31.63;;;;;;;;;;5033241;28;20477;-70
2022/03/23 03:04:29;;;;;;;58.40;30.95;;;;;;;;;;5033152;28;20048;-70
2022/03/23 03:06:57;;;;;;;62.17;30.77;;;;;;;;;;5034657;28;20064;-71
2022/03/23 03:09:23;;;;;;;65.10;30.58;;;;;;;;;;5034612;28;20051;-71
2022/03/23 03:11:49;;;;;;;66.78;31.42;;;;;;;;;;5034147;28;20041;-70
2022/03/23 03:14:15;;;;;;;60.20;29.45;;;;;;;;;;5034211;28;20401;-70
2022/03/23 03:16:41;;;;;;;60.85;30.50;;;;;;;;;;5034210;28;20052;-70
2022/03/23 03:19:10;;;;;;;58.83;29.77;;;;;;;;;;5032980;28;20132;-70
2022/03/23 03:21:36;;;;;;;;;;;;;;;;;;5034525;28;20041;-70
2022/03/23 03:24:02;;;;;;;56.67;28.23;;;;;;;;;;5034078;28;20008;-71
2022/03/23 03:26:30;;;;;;;59.53;29.63;;;;;;;;;;5033776;28;20477;-70
2022/03/23 03:28:57;;;;;;;66.57;30.63;;;;;;;;;;5033955;28;20053;-71
2022/03/23 03:31:23;;;;;;;81.70;34.97;;;;;;;;;;5034011;28;20045;-71
2022/03/23 03:33:49;;;;;;;77.45;34.20;;;;;;;;;;5033411;28;20412;-71
2022/03/23 03:36:16;;;;;;;67.13;31.35;;;;;;;;;;5033751;28;20041;-70
2022/03/23 03:38:43;;;;;;;67.97;32.28;;;;;;;;;;5032740;28;20041;-70
2022/03/23 03:41:09;;;;;;;63.90;29.63;;;;;;;;;;5016138;28;20049;-70
2022/03/23 03:43:35;;;;;;;74.43;33.08;;;;;;;;;;5044211;28;20056;-70
2022/03/23 03:46:02;;;;;;;74.88;33.33;;;;;;;;;;5053605;28;20053;-70
2022/03/23 03:48:29;;;;;;;80.13;33.85;;;;;;;;;;5053568;28;20492;-70
2022/03/23 03:50:55;;;;;;;82.15;33.15;;;;;;;;;;5035519;28;20052;-70
2022/03/23 03:53:21;;;;;;;67.40;31.48;;;;;;;;;;5053932;28;20048;-70
2022/03/23 03:55:47;;;;;;;77.82;34.80;;;;;;;;;;5053248;28;20091;-70
2022/03/23 03:58:14;;;;;;;72.28;33.35;;;;;;;;;;5053689;28;20045;-71
2022/03/23 04:00:40;;;;;;;62.50;29.65;;;;;;;;;;5053420;28;20052;-70
2022/03/23 04:03:06;;;;;;;139.60;42.65;;;;;;;;;;5053535;28;20044;-70
2022/03/23 04:05:35;;;;;;;71.22;31.42;;;;;;;;;;5053595;28;20476;-70
2022/03/23 04:08:01;;;;;;;75.57;33.75;;;;;;;;;;5053040;28;20041;-70
2022/03/23 04:10:27;;;;;;;68.53;30.95;;;;;;;;;;5053247;28;20041;-70
2022/03/23 04:12:53;;;;;;;75.85;34.08;;;;;;;;;;5053279;28;20050;-70
2022/03/23 04:15:20;;;;;;;69.70;31.58;;;;;;;;;;5035516;28;20187;-70
2022/03/23 04:17:47;;;;;;;70.50;33.22;;;;;;;;;;5018618;28;20037;-70
2022/03/23 04:20:13;;;;;;;69.35;31.85;;;;;;;;;;5051236;28;20074;-70
2022/03/23 04:22:39;;;;;;;73.43;33.65;;;;;;;;;;5052890;28;20167;-70
2022/03/23 04:25:07;;;;;;;68.63;33.58;;;;;;;;;;5052729;28;20041;-70
2022/03/23 04:27:34;;;;;;;69.68;32.47;;;;;;;;;;5053181;28;20052;-70
2022/03/23 04:30:00;;;;;;;75.00;35.60;;;;;;;;;;5052928;28;20045;-70
2022/03/23 04:32:26;;;;;;;70.40;34.25;;;;;;;;;;5052791;28;20049;-70
2022/03/23 04:34:52;;;;;;;69.20;33.60;;;;;;;;;;5052825;28;20045;-70
2022/03/23 04:37:18;;;;;;;84.88;36.78;;;;;;;;;;5035151;28;20094;-70
2022/03/23 04:39:44;;;;;;;82.70;34.60;;;;;;;;;;5035398;28;20373;-70
2022/03/23 04:42:10;;;;;;;78.32;34.47;;;;;;;;;;5052862;28;20049;-70
2022/03/23 04:44:36;;;;;;;74.53;34.45;;;;;;;;;;5056346;28;20519;-70
2022/03/23 04:47:02;;;;;;;89.05;36.58;;;;;;;;;;5056655;28;20053;-70
2022/03/23 04:49:28;;;;;;;90.88;37.03;;;;;;;;;;5056617;28;20045;-70
2022/03/23 04:51:54;;;;;;;85.35;37.28;;;;;;;;;;5056156;28;20560;-70
2022/03/23 04:54:20;;;;;;;99.18;39.55;;;;;;;;;;5038516;28;20049;-70
2022/03/23 04:56:46;;;;;;;88.57;36.33;;;;;;;;;;5038727;28;20369;-70
2022/03/23 04:59:13;;;;;;;96.57;37.97;;;;;;;;;;5038401;28;20071;-70
2022/03/23 05:01:39;;;;;;;157.43;49.88;;;;;;;;;;5038628;28;20049;-70
2022/03/23 05:04:05;;;;;;;110.00;41.88;;;;;;;;;;5056412;28;20515;-70
2022/03/23 05:06:31;;;;;;;117.22;38.97;;;;;;;;;;5056205;28;20049;-70
2022/03/23 05:08:57;;;;;;;114.20;40.83;;;;;;;;;;5056426;28;20087;-70
2022/03/23 05:11:23;;;;;;;126.05;44.58;;;;;;;;;;5056453;28;20041;-70
2022/03/23 05:13:49;;;;;;;144.27;48.35;;;;;;;;;;5038150;28;20064;-70
2022/03/23 05:16:18;;;;;;;118.93;43.88;;;;;;;;;;5038229;28;20053;-70
2022/03/23 05:18:44;;;;;;;129.95;47.53;;;;;;;;;;5055917;28;20045;-70
2022/03/23 05:21:11;;;;;;;106.97;44.63;;;;;;;;;;5055645;28;20509;-70
2022/03/23 05:23:37;;;;;;;109.97;41.30;;;;;;;;;;5056078;28;20049;-70
2022/03/23 05:26:03;;;;;;;122.75;45.70;;;;;;;;;;5037915;28;20583;-70
2022/03/23 05:28:29;;;;;;;160.50;50.70;;;;;;;;;;5055819;28;20041;-70
2022/03/23 05:30:55;;;;;;;211.80;57.47;;;;;;;;;;5037624;28;20081;-70
2022/03/23 05:33:21;;;;;;;222.50;63.47;;;;;;;;;;5055376;28;20146;-70
2022/03/23 05:35:47;;;;;;;167.60;54.40;;;;;;;;;;5037378;28;20041;-70
2022/03/23 05:38:13;;;;;;;196.75;61.60;;;;;;;;;;5055753;28;20045;-70
2022/03/23 05:40:40;;;;;;;133.20;48.30;;;;;;;;;;5055701;28;20115;-70
2022/03/23 05:43:06;;;;;;;141.95;49.40;;;;;;;;;;5055578;28;20071;-70
2022/03/23 05:45:32;;;;;;;158.25;55.55;;;;;;;;;;5054970;28;20041;-70
2022/03/23 05:47:58;;;;;;;149.32;53.47;;;;;;;;;;5055436;28;20076;-70
2022/03/23 05:50:24;;;;;;;116.75;50.70;;;;;;;;;;5055039;28;20072;-71
2022/03/23 05:52:50;;;;;;;187.05;61.15;;;;;;;;;;5055436;28;20056;-71
2022/03/23 05:55:16;;;;;;;140.85;54.10;;;;;;;;;;5054817;28;20480;-71
2022/03/23 05:57:42;;;;;;;176.32;61.42;;;;;;;;;;5055446;28;20052;-70
2022/03/23 06:00:09;;;;;;;216.20;68.45;;;;;;;;;;5055450;28;20555;-71
2022/03/23 06:02:35;;;;;;;150.25;56.38;;;;;;;;;;5057091;28;20071;-71
2022/03/23 06:05:01;;;;;;;125.80;52.65;;;;;;;;;;5055476;28;20080;-71
2022/03/23 06:07:27;;;;;;;199.65;66.78;;;;;;;;;;5055504;28;20392;-71
2022/03/23 06:09:53;;;;;;;153.30;56.00;;;;;;;;;;5055232;28;20125;-71
2022/03/23 06:12:20;;;;;;;160.27;56.85;;;;;;;;;;5055662;28;20124;-71
2022/03/23 06:14:47;;;;;;;160.82;56.17;;;;;;;;;;5038567;28;20057;-70
2022/03/23 06:17:13;;;;;;;179.18;59.47;;;;;;;;;;5057128;28;20045;-71
2022/03/23 06:19:39;;;;;;;156.10;54.75;;;;;;;;;;5039551;28;20045;-70
2022/03/23 06:22:05;;;;;;;128.60;51.78;;;;;;;;;;5056941;28;20396;-71
2022/03/23 06:24:31;;;;;;;127.75;53.00;;;;;;;;;;5056195;28;20041;-71
2022/03/23 06:26:58;;;;;;;115.00;49.08;;;;;;;;;;5037517;28;20047;-71
2022/03/23 06:29:24;;;;;;;169.38;58.22;;;;;;;;;;5055615;28;20055;-71
2022/03/23 06:31:50;;;;;;;173.77;59.05;;;;;;;;;;5054816;28;20124;-71
2022/03/23 06:34:16;;;;;;;117.47;48.65;;;;;;;;;;5055162;28;20041;-71
2022/03/23 06:36:41;;;;;;;156.30;56.33;;;;;;;;;;5055298;28;20041;-71
2022/03/23 06:39:07;;;;;;;236.32;70.88;;;;;;;;;;5055324;28;20045;-70
2022/03/23 06:41:33;;;;;;;145.00;50.25;;;;;;;;;;5037583;28;20073;-71
2022/03/23 06:43:59;;;;;;;203.77;61.60;;;;;;;;;;5056360;28;20051;-71
2022/03/23 06:46:25;;;;;;;124.43;45.42;;;;;;;;;;5057762;28;20071;-71
2022/03/23 06:48:52;;;;;;;114.05;43.88;;;;;;;;;;5056792;28;20496;-71
2022/03/23 06:51:18;;;;;;;101.80;39.97;;;;;;;;;;5057134;28;20559;-71
2022/03/23 06:53:44;;;;;;;143.82;46.17;;;;;;;;;;5056747;28;20037;-71
2022/03/23 06:56:10;;;;;;;118.07;42.28;;;;;;;;;;5054142;28;20044;-71
2022/03/23 06:58:37;;;;;;;133.23;45.75;;;;;;;;;;5049490;28;20044;-71
2022/03/23 07:01:03;;;;;;;166.90;52.28;;;;;;;;;;5058415;28;20041;-71
2022/03/23 07:03:29;;;;;;;109.50;42.30;;;;;;;;;;5056184;28;20464;-71
2022/03/23 07:05:55;;;;;;;72.30;34.03;;;;;;;;;;5055703;28;20052;-71
2022/03/23 07:11:05;;;;;;;66.15;33.97;;;;;;;;;;5057026;28;20444;-71
2022/03/23 07:13:32;;;;;;;54.20;28.40;;;;;;;;;;5054554;28;20040;-71
2022/03/23 07:15:58;;;;;;;72.38;32.47;;;;;;;;;;5054412;28;20044;-71
2022/03/23 07:18:24;;;;;;;64.13;31.05;;;;;;;;;;5037967;28;20033;-71
2022/03/23 07:20:50;;;;;;;64.28;31.85;;;;;;;;;;5038145;28;20052;-71
2022/03/23 07:23:16;;;;;;;60.97;29.80;;;;;;;;;;5038779;28;20049;-71
2022/03/23 07:25:42;;;;;;;58.80;30.52;;;;;;;;;;5055016;28;20037;-72
2022/03/23 07:28:08;;;;;;;64.88;28.33;;;;;;;;;;5036203;28;20075;-72
2022/03/23 07:30:35;;;;;;;59.78;30.02;;;;;;;;;;5038079;28;20037;-72
2022/03/23 07:33:02;;;;;;;58.47;29.42;;;;;;;;;;5056995;28;20048;-71
2022/03/23 07:35:28;;;;;;;56.15;30.23;;;;;;;;;;5038850;28;20175;-71
2022/03/23 07:37:54;;;;;;;52.40;26.63;;;;;;;;;;5057164;28;20071;-71
2022/03/23 07:40:20;;;;;;;45.70;22.92;;;;;;;;;;5056811;28;20053;-71
2022/03/23 07:42:46;;;;;;;49.67;25.42;;;;;;;;;;5056152;28;20381;-72
2022/03/23 07:45:13;;;;;;;36.78;21.05;;;;;;;;;;5039015;28;20053;-72
2022/03/23 07:47:39;;;;;;;39.90;21.90;;;;;;;;;;5056389;28;20133;-71
2022/03/23 07:50:06;;;;;;;41.78;21.90;;;;;;;;;;5058327;28;20084;-72
2022/03/23 07:52:33;;;;;;;35.75;20.08;;;;;;;;;;5056557;28;20081;-71
2022/03/23 07:55:00;;;;;;;39.35;21.05;;;;;;;;;;5059033;28;20056;-71
2022/03/23 07:57:26;;;;;;;73.60;29.20;;;;;;;;;;5038163;28;20052;-71
2022/03/23 07:59:52;;;;;;;34.85;20.85;;;;;;;;;;5056161;28;20041;-71
2022/03/23 08:02:18;;;;;;;34.67;20.63;;;;;;;;;;5054963;28;20049;-71
2022/03/23 08:04:44;;;;;;;36.38;19.27;;;;;;;;;;5054569;28;20554;-71
2022/03/23 08:07:10;;;;;;;38.10;21.23;;;;;;;;;;5038213;28;20041;-71
2022/03/23 08:09:36;;;;;;;38.85;20.70;;;;;;;;;;5055431;28;20041;-71
2022/03/23 08:12:02;;;;;;;47.88;21.10;;;;;;;;;;5036514;28;20041;-71
2022/03/23 08:14:28;;;;;;;43.50;21.30;;;;;;;;;;5036552;28;20080;-72
2022/03/23 08:16:54;;;;;;;35.38;19.70;;;;;;;;;;5056273;28;20037;-71
2022/03/23 08:19:22;;;;;;;41.85;21.70;;;;;;;;;;5060027;28;20082;-72
2022/03/23 08:21:48;;;;;;;36.70;20.60;;;;;;;;;;5060219;28;20556;-72
2022/03/23 08:24:14;;;;;;;33.20;18.48;;;;;;;;;;5044263;28;20041;-72
2022/03/23 08:26:40;;;;;;;33.50;19.13;;;;;;;;;;5042485;28;20049;-72
2022/03/23 08:29:06;;;;;;;30.55;19.52;;;;;;;;;;5061480;28;20048;-71
2022/03/23 08:31:32;;;;;;;34.35;20.80;;;;;;;;;;5062005;28;20057;-72
2022/03/23 08:33:58;;;;;;;33.15;18.50;;;;;;;;;;5061929;28;20075;-72
2022/03/23 08:36:24;;;;;;;34.33;18.40;;;;;;;;;;5062033;28;20048;-72
2022/03/23 08:38:50;;;;;;;37.45;20.13;;;;;;;;;;5042870;28;20072;-72
2022/03/23 08:41:18;;;;;;;30.23;18.50;;;;;;;;;;5044334;28;20056;-72
2022/03/23 08:43:44;;;;;;;33.05;18.85;;;;;;;;;;5064037;28;20052;-72
2022/03/23 08:46:12;;;;;;;29.25;18.30;;;;;;;;;;5063667;28;20045;-72
2022/03/23 08:48:38;;;;;;;29.65;18.30;;;;;;;;;;5061254;28;20166;-72
2022/03/23 08:51:04;;;;;;;26.15;17.90;;;;;;;;;;5044120;28;20057;-72
2022/03/23 08:53:31;;;;;;;32.30;18.25;;;;;;;;;;5064341;28;20063;-72
2022/03/23 08:55:57;;;;;;;27.35;16.90;;;;;;;;;;5061204;28;20045;-72
2022/03/23 08:58:23;;;;;;;28.38;18.30;;;;;;;;;;5043619;28;20041;-72
2022/03/23 09:00:49;;;;;;;30.23;17.88;;;;;;;;;;5063457;28;20100;-72
2022/03/23 09:03:15;;;;;;;37.20;18.85;;;;;;;;;;5062495;28;20045;-72
2022/03/23 09:05:41;;;;;;;30.30;18.80;;;;;;;;;;5062458;28;20506;-72
2022/03/23 09:08:11;;;;;;;41.88;18.75;;;;;;;;;;5029597;28;20124;-72
2022/03/23 09:10:37;;;;;;;28.30;16.98;;;;;;;;;;5048146;28;20040;-72
2022/03/23 09:13:04;;;;;;;27.27;17.50;;;;;;;;;;5063306;28;20040;-72
2022/03/23 09:15:33;;;;;;;29.75;17.02;;;;;;;;;;5064857;28;20060;-72
2022/03/23 09:18:02;;;;;;;24.33;16.98;;;;;;;;;;5061746;28;20041;-73
2022/03/23 09:20:28;;;;;;;25.63;16.60;;;;;;;;;;5065640;28;20048;-72
2022/03/23 09:22:58;;;;;;;27.70;16.70;;;;;;;;;;5061419;28;20404;-72
2022/03/23 09:25:24;;;;;;;23.40;16.67;;;;;;;;;;5040390;28;20069;-72
2022/03/23 09:27:51;;;;;;;31.05;17.50;;;;;;;;;;5061893;28;20107;-72
2022/03/23 09:30:17;;;;;;;30.52;17.00;;;;;;;;;;5061477;28;20045;-72
2022/03/23 09:32:44;;;;;;;25.63;17.70;;;;;;;;;;5060642;28;20041;-73
2022/03/23 09:35:11;;;;;;;28.10;17.23;;;;;;;;;;5025151;28;20053;-72
2022/03/23 09:37:49;;;;;;;25.75;17.38;;;;;;;;;;5058083;28;20099;-72
2022/03/23 09:40:20;;;;;;;32.83;17.40;;;;;;;;;;5058609;28;20045;-72
2022/03/23 09:42:46;;;;;;;41.17;19.70;;;;;;;;;;5042121;28;20053;-72
2022/03/23 09:45:20;;;;;;;25.90;18.13;;;;;;;;;;5061422;28;20426;-72
2022/03/23 09:47:46;;;;;;;28.13;17.98;;;;;;;;;;5059152;28;20045;-72
2022/03/23 09:50:13;;;;;;;34.03;19.15;;;;;;;;;;5061906;28;20043;-73
2022/03/23 09:52:39;;;;;;;29.27;18.05;;;;;;;;;;5047783;28;20056;-73
2022/03/23 09:55:05;;;;;;;25.60;17.20;;;;;;;;;;5063617;28;20064;-73
2022/03/23 09:57:31;;;;;;;29.17;17.50;;;;;;;;;;5047244;28;20045;-73
2022/03/23 09:59:57;;;;;;;33.05;19.65;;;;;;;;;;5064244;28;20045;-72
2022/03/23 10:02:42;;;;;;;40.67;20.30;;;;;;;;;;5058280;28;20071;-72
2022/03/23 10:05:42;;;;;;;28.02;18.83;;;;;;;;;;5055814;28;20388;-72
2022/03/23 10:08:27;;;;;;;33.38;18.52;;;;;;;;;;5056176;28;20125;-72
2022/03/23 10:11:18;;;;;;;25.00;17.35;;;;;;;;;;5055757;28;20073;-72
2022/03/23 10:13:57;;;;;;;25.13;16.88;;;;;;;;;;5056068;28;20048;-72
2022/03/23 10:16:41;;;;;;;29.65;17.63;;;;;;;;;;5038341;28;20152;-72
2022/03/23 10:19:07;;;;;;;32.17;16.98;;;;;;;;;;5056679;28;20492;-72
2022/03/23 10:21:35;;;;;;;24.98;16.40;;;;;;;;;;5058290;28;20049;-72
2022/03/23 10:24:01;;;;;;;34.55;17.58;;;;;;;;;;5057473;28;20059;-72
2022/03/23 10:26:28;;;;;;;28.40;17.67;;;;;;;;;;5058597;28;20056;-72
2022/03/23 10:28:54;;;;;;;24.92;17.10;;;;;;;;;;5058075;28;20056;-73
2022/03/23 10:31:21;;;;;;;30.25;16.50;;;;;;;;;;5058370;28;20045;-73
2022/03/23 10:33:57;;;;;;;28.60;17.80;;;;;;;;;;5057434;28;20403;-73
2022/03/23 10:36:27;;;;;;;22.83;15.73;;;;;;;;;;5021690;28;20048;-73
2022/03/23 10:38:58;;;;;;;22.48;16.30;;;;;;;;;;5055804;28;20055;-73
2022/03/23 10:41:25;;;;;;;24.20;16.85;;;;;;;;;;5056409;28;20040;-73
2022/03/23 10:43:51;;;;;;;28.50;16.38;;;;;;;;;;5056987;28;20132;-73
2022/03/23 10:46:18;;;;;;;25.25;16.52;;;;;;;;;;5058253;28;20036;-73
2022/03/23 10:48:58;;;;;;;37.50;18.73;;;;;;;;;;5040573;28;20095;-71
2022/03/23 10:51:29;;;;;;;28.73;16.17;;;;;;;;;;5059709;28;20072;-70
2022/03/23 10:53:55;;;;;;;27.90;16.23;;;;;;;;;;5056572;28;20049;-70
2022/03/23 10:56:31;;;;;;;23.13;14.60;;;;;;;;;;5057099;28;20384;-70
2022/03/23 10:59:16;;;;;;;26.85;17.23;;;;;;;;;;5054718;28;20128;-71
2022/03/23 11:02:01;;;;;;;31.50;17.33;;;;;;;;;;5057047;28;20045;-72
2022/03/23 11:04:29;;;;;;;25.90;16.23;;;;;;;;;;5037315;28;20399;-72
2022/03/23 11:06:59;;;;;;;19.58;15.05;;;;;;;;;;5054064;28;20056;-73
2022/03/23 11:18:20;;;;;;;25.23;16.73;;;;;;;;;;5054611;28;20408;-73
2022/03/23 11:20:51;;;;;;;23.38;16.27;;;;;;;;;;5032728;28;20132;-73
2022/03/23 11:23:24;;;;;;;29.65;17.55;;;;;;;;;;5053897;28;20045;-73
2022/03/23 11:25:54;;;;;;;31.35;17.17;;;;;;;;;;5053359;28;20037;-73
2022/03/23 11:28:21;;;;;;;26.40;16.67;;;;;;;;;;5054014;28;20045;-73
2022/03/23 11:30:48;;;;;;;43.15;18.88;;;;;;;;;;5053898;28;20116;-73
2022/03/23 11:33:24;;;;;;;29.23;17.55;;;;;;;;;;5019625;28;20530;-73
2022/03/23 11:35:51;;;;;;;29.80;17.50;;;;;;;;;;5053617;28;20179;-73
2022/03/23 11:38:19;;;;;;;26.45;16.90;;;;;;;;;;5053452;28;20508;-73
2022/03/23 11:40:47;;;;;;;25.20;17.60;;;;;;;;;;5053732;28;20049;-73
2022/03/23 11:43:13;;;;;;;22.45;16.30;;;;;;;;;;5035852;28;20049;-73
2022/03/23 11:45:40;;;;;;;35.83;17.85;;;;;;;;;;5053743;28;20041;-73
2022/03/23 11:48:11;;;;;;;29.92;17.50;;;;;;;;;;5054306;28;20047;-73
2022/03/23 11:50:46;;;;;;;29.35;16.45;;;;;;;;;;5054153;28;20044;-73
2022/03/23 11:53:31;;;;;;;37.50;18.55;;;;;;;;;;5054182;28;20041;-73
2022/03/23 11:55:58;;;;;;;42.42;18.73;;;;;;;;;;5054069;28;20090;-73
2022/03/23 11:58:34;;;;;;;26.33;16.02;;;;;;;;;;5054021;28;20080;-73
2022/03/23 12:01:11;;;;;;;37.28;18.38;;;;;;;;;;5035628;28;20045;-73
2022/03/23 12:03:43;;;;;;;25.67;15.33;;;;;;;;;;5053466;28;20099;-73
2022/03/23 12:06:14;;;;;;;22.17;14.60;;;;;;;;;;5035341;28;20045;-74
2022/03/23 12:08:50;;;;;;;21.17;14.85;;;;;;;;;;5053599;28;20076;-73
2022/03/23 12:11:35;;;;;;;19.92;13.50;;;;;;;;;;5053098;28;20047;-74
2022/03/23 12:14:03;;;;;;;41.70;19.75;;;;;;;;;;5052954;28;20119;-75
2022/03/23 12:16:58;;;;;;;19.90;14.98;;;;;;;;;;5052926;28;20134;-74
2022/03/23 12:19:33;;;;;;;20.20;13.45;;;;;;;;;;5056916;28;20107;-74
2022/03/23 12:21:59;;;;;;;19.70;12.25;;;;;;;;;;5036771;28;20049;-75
2022/03/23 12:24:33;;;;;;;26.20;13.85;;;;;;;;;;5053364;28;20057;-74
2022/03/23 12:27:00;;;;;;;19.60;12.63;;;;;;;;;;5035982;28;20049;-74
2022/03/23 12:29:27;;;;;;;27.52;13.15;;;;;;;;;;5055295;28;20409;-73
2022/03/23 12:32:05;;;;;;;22.92;12.20;;;;;;;;;;5053694;28;20128;-73
2022/03/23 12:34:32;;;;;;;24.23;13.57;;;;;;;;;;5053072;28;20052;-71
2022/03/23 12:37:08;;;;;;;24.10;13.07;;;;;;;;;;5053287;28;20099;-71
2022/03/23 12:39:38;;;;;;;26.15;13.98;;;;;;;;;;5053138;28;20052;-72
2022/03/23 12:42:16;;;;;;;33.58;14.50;;;;;;;;;;5054247;28;20441;-73
2022/03/23 12:44:43;;;;;;;17.27;11.00;;;;;;;;;;5050988;28;20112;-72
2022/03/23 12:47:12;;;;;;;21.15;13.20;;;;;;;;;;5056837;28;20526;-72
2022/03/23 12:58:02;;;;;;;24.27;13.75;;;;;;;;;;5052064;28;20041;-72
2022/03/23 13:00:32;;;;;;;25.08;13.02;;;;;;;;;;5052889;28;20063;-73
2022/03/23 13:03:07;;;;;;;51.72;17.88;;;;;;;;;;5035817;28;20045;-73
2022/03/23 13:05:34;;;;;;;19.17;12.25;;;;;;;;;;5055720;28;20045;-73
2022/03/23 13:08:01;;;;;;;18.23;10.80;;;;;;;;;;5056511;28;20044;-73
2022/03/23 13:10:27;;;;;;;36.28;15.27;;;;;;;;;;5039553;28;20041;-73
2022/03/23 13:13:07;;;;;;;23.95;11.30;;;;;;;;;;5039058;28;20403;-73
2022/03/23 13:15:34;;;;;;;18.25;10.88;;;;;;;;;;5056757;28;20041;-73
2022/03/23 13:18:00;;;;;;;22.13;12.17;;;;;;;;;;5056465;28;20500;-74
2022/03/23 13:20:27;;;;;;;24.35;10.93;;;;;;;;;;5055743;28;20287;-72
2022/03/23 13:22:53;;;;;;;26.13;11.03;;;;;;;;;;5055472;28;20044;-73
2022/03/23 13:25:20;;;;;;;22.30;12.10;;;;;;;;;;5055166;28;20036;-73
2022/03/23 13:27:47;;;;;;;21.08;11.20;;;;;;;;;;5055292;28;20074;-73
2022/03/23 13:30:14;;;;;;;26.23;12.03;;;;;;;;;;5055458;28;20040;-73
2022/03/23 13:32:42;;;;;;;20.05;9.98;;;;;;;;;;5037474;28;20287;-73
2022/03/23 13:35:14;;;;;;;25.75;9.93;;;;;;;;;;5055636;28;20041;-73
2022/03/23 13:37:57;;;;;;;24.63;11.35;;;;;;;;;;5056136;28;20444;-74
2022/03/23 13:43:19;;;;;;;25.63;10.40;;;;;;;;;;5055962;28;20052;-74
2022/03/23 13:43:19;;;;;;;35.05;12.75;;;;;;;;;;5055095;28;20052;-74
2022/03/23 13:45:53;;;;;;;21.92;10.95;;;;;;;;;;5038196;28;20064;-74
2022/03/23 13:48:19;;;;;;;28.85;11.63;;;;;;;;;;5038093;28;20495;-73
2022/03/23 13:50:49;;;;;;;24.00;10.70;;;;;;;;;;5055283;28;20040;-73
2022/03/23 13:53:18;;;;;;;28.45;11.88;;;;;;;;;;5037520;28;20059;-73
2022/03/23 13:55:47;;;;;;;24.95;10.25;;;;;;;;;;5055101;28;20052;-73
2022/03/23 13:58:16;;;;;;;27.40;10.45;;;;;;;;;;5055235;28;20048;-73
2022/03/23 14:00:43;;;;;;;27.48;10.40;;;;;;;;;;5055233;28;20049;-73
2022/03/23 14:03:09;;;;;;;22.08;10.23;;;;;;;;;;5055017;28;20090;-74
2022/03/23 14:05:36;;;;;;;23.58;8.15;;;;;;;;;;5054890;28;20084;-73
2022/03/23 14:08:02;;;;;;;27.77;9.40;;;;;;;;;;5055268;28;20041;-73
2022/03/23 14:10:34;;;;;;;23.08;10.35;;;;;;;;;;5055064;28;20279;-73
2022/03/23 14:13:03;;;;;;;19.77;9.68;;;;;;;;;;5054875;28;20098;-73
2022/03/23 14:15:33;;;;;;;25.08;9.95;;;;;;;;;;5054270;28;20048;-73
2022/03/23 14:17:59;;;;;;;20.55;9.20;;;;;;;;;;5054677;28;20045;-73
2022/03/23 14:20:25;;;;;;;17.77;8.90;;;;;;;;;;5054530;28;20056;-73
2022/03/23 14:22:53;;;;;;;17.70;8.70;;;;;;;;;;5054387;28;20068;-73
2022/03/23 14:25:20;;;;;;;25.75;12.25;;;;;;;;;;5036684;28;20424;-73
2022/03/23 14:27:49;;;;;;;23.77;10.83;;;;;;;;;;5054705;28;20045;-73
2022/03/23 14:30:16;;;;;;;27.75;10.90;;;;;;;;;;5054539;28;20045;-72
2022/03/23 14:32:54;;;;;;;19.02;10.05;;;;;;;;;;5054573;28;20086;-73
2022/03/23 14:35:20;;;;;;;23.30;10.65;;;;;;;;;;5054356;28;20044;-73
2022/03/23 14:37:47;;;;;;;19.50;10.95;;;;;;;;;;5054266;28;20512;-73
2022/03/23 14:40:24;;;;;;;22.80;10.68;;;;;;;;;;5054478;28;20052;-73
2022/03/23 14:42:51;;;;;;;28.30;11.38;;;;;;;;;;5054074;28;20055;-73
2022/03/23 14:45:30;;;;;;;23.10;11.13;;;;;;;;;;5054148;28;20059;-73
2022/03/23 14:47:58;;;;;;;24.23;10.88;;;;;;;;;;5054088;28;20397;-73